createdAt,value
2022-12-25T00:01:22.653Z,28.23
2022-12-25T00:03:50.588Z,28.08
2022-12-25T00:06:18.363Z,32.20
2022-12-25T00:08:45.716Z,33.60
2022-12-25T00:11:15.863Z,29.00
2022-12-25T00:13:43.342Z,29.75
2022-12-25T00:16:23.151Z,34.88
2022-12-25T00:18:51.648Z,38.50
2022-12-25T00:21:19.420Z,39.08
2022-12-25T00:23:47.104Z,37.95
2022-12-25T00:26:18.376Z,33.70
2022-12-25T00:28:45.668Z,37.17
2022-12-25T00:31:15.805Z,36.38
2022-12-25T00:33:45.274Z,31.42
2022-12-25T00:36:14.400Z,30.83
2022-12-25T00:38:42.220Z,35.00
2022-12-25T00:41:12.205Z,26.95
2022-12-25T00:43:39.617Z,35.90
2022-12-25T00:46:07.489Z,28.25
2022-12-25T00:48:35.641Z,32.72
2022-12-25T00:51:05.897Z,29.50
2022-12-25T00:53:33.494Z,34.35
2022-12-25T00:56:04.150Z,43.63
2022-12-25T00:58:33.305Z,45.25
2022-12-25T01:01:00.840Z,60.53
2022-12-25T01:03:28.172Z,69.65
2022-12-25T01:06:13.433Z,63.83
2022-12-25T01:09:04.711Z,51.58
2022-12-25T01:11:32.437Z,40.10
2022-12-25T01:13:59.799Z,39.67
2022-12-25T01:16:27.518Z,41.53
2022-12-25T01:18:54.887Z,52.80
2022-12-25T01:21:22.574Z,55.85
2022-12-25T01:23:53.540Z,47.75
2022-12-25T01:26:22.877Z,47.47
2022-12-25T01:28:51.013Z,47.28
2022-12-25T01:31:20.782Z,48.90
2022-12-25T01:33:48.542Z,42.42
2022-12-25T01:36:24.835Z,35.80
2022-12-25T01:38:53.640Z,31.42
2022-12-25T01:41:23.268Z,31.13
2022-12-25T01:44:16.926Z,31.83
2022-12-25T01:46:44.588Z,26.48
2022-12-25T01:49:16.897Z,29.67
2022-12-25T01:51:48.458Z,32.83
2022-12-25T01:54:23.471Z,38.25
2022-12-25T01:56:53.844Z,47.50
2022-12-25T01:59:23.932Z,43.67
2022-12-25T02:01:51.600Z,33.20
2022-12-25T02:04:40.655Z,31.33
2022-12-25T02:07:10.966Z,32.80
2022-12-25T02:09:38.717Z,30.45
2022-12-25T02:12:08.093Z,25.60
2022-12-25T02:14:37.695Z,25.60
2022-12-25T02:17:11.797Z,26.83
2022-12-25T02:20:10.129Z,29.77
2022-12-25T02:23:03.678Z,27.38
2022-12-25T02:25:48.923Z,33.92
2022-12-25T02:28:18.887Z,32.45
2022-12-25T02:31:16.440Z,31.63
2022-12-25T02:34:03.473Z,28.02
2022-12-25T02:36:51.573Z,29.23
2022-12-25T02:39:50.284Z,27.75
2022-12-25T02:42:45.133Z,24.63
2022-12-25T02:45:34.755Z,27.17
2022-12-25T02:48:21.572Z,30.67
2022-12-25T02:51:08.988Z,29.85
2022-12-25T02:53:58.383Z,30.95
2022-12-25T02:56:46.776Z,36.08
2022-12-25T02:59:35.902Z,26.52
2022-12-25T03:02:23.273Z,32.10
2022-12-25T03:05:10.554Z,26.27
2022-12-25T03:07:42.242Z,25.15
2022-12-25T03:10:31.126Z,24.55
2022-12-25T03:13:11.933Z,23.38
2022-12-25T03:15:59.583Z,24.15
2022-12-25T03:18:29.473Z,22.40
2022-12-25T03:21:15.528Z,27.77
2022-12-25T03:24:07.100Z,22.95
2022-12-25T03:26:53.057Z,23.80
2022-12-25T03:29:38.886Z,25.30
2022-12-25T03:32:24.985Z,26.25
2022-12-25T03:35:25.960Z,22.05
2022-12-25T03:38:20.868Z,36.13
2022-12-25T03:41:25.727Z,40.42
2022-12-25T03:44:37.037Z,31.92
2022-12-25T03:47:36.092Z,47.78
2022-12-25T03:50:39.951Z,33.95
2022-12-25T03:53:38.935Z,35.08
2022-12-25T03:56:32.756Z,23.98
2022-12-25T03:59:23.598Z,25.73
2022-12-25T04:02:10.786Z,22.20
2022-12-25T04:04:56.773Z,25.42
2022-12-25T04:07:42.978Z,23.73
2022-12-25T04:10:29.098Z,25.70
2022-12-25T04:13:14.934Z,24.60
2022-12-25T04:16:00.984Z,22.15
2022-12-25T04:18:46.638Z,22.90
2022-12-25T04:21:32.607Z,22.27
2022-12-25T04:24:18.436Z,22.98
2022-12-25T04:27:04.188Z,24.00
2022-12-25T04:29:50.037Z,29.15
2022-12-25T04:32:35.879Z,32.55
2022-12-25T04:35:21.645Z,41.30
2022-12-25T04:37:48.875Z,30.70
2022-12-25T04:40:16.519Z,27.23
2022-12-25T04:42:43.877Z,26.65
2022-12-25T04:45:11.952Z,27.75
2022-12-25T04:47:39.253Z,21.77
2022-12-25T04:50:07.314Z,23.00
2022-12-25T04:52:38.854Z,24.42
2022-12-25T04:55:08.508Z,21.13
2022-12-25T04:57:36.230Z,23.38
2022-12-25T05:00:05.253Z,21.92
2022-12-25T05:02:32.694Z,24.88
2022-12-25T05:05:00.130Z,29.85
2022-12-25T05:07:27.411Z,18.67
2022-12-25T05:09:54.573Z,24.55
2022-12-25T05:12:21.743Z,21.80
2022-12-25T05:14:48.953Z,22.80
2022-12-25T05:17:16.209Z,22.35
2022-12-25T05:19:43.587Z,22.20
2022-12-25T05:22:10.705Z,24.55
2022-12-25T05:24:37.744Z,28.15
2022-12-25T05:27:04.943Z,24.23
2022-12-25T05:29:32.099Z,27.75
2022-12-25T05:31:59.131Z,27.63
2022-12-25T05:34:26.274Z,29.58
2022-12-25T05:36:53.454Z,27.52
2022-12-25T05:39:20.633Z,29.65
2022-12-25T05:41:47.830Z,27.00
2022-12-25T05:44:15.222Z,25.40
2022-12-25T05:46:42.660Z,25.60
2022-12-25T05:49:09.903Z,23.80
2022-12-25T05:51:37.103Z,24.25
2022-12-25T05:54:04.328Z,25.98
2022-12-25T05:56:31.504Z,33.40
2022-12-25T05:58:58.693Z,28.52
2022-12-25T06:01:28.684Z,29.83
2022-12-25T06:03:57.665Z,31.48
2022-12-25T06:06:25.359Z,21.92
2022-12-25T06:08:55.326Z,24.60
2022-12-25T06:11:23.281Z,20.20
2022-12-25T06:13:52.126Z,26.58
2022-12-25T06:16:20.179Z,24.73
2022-12-25T06:18:52.380Z,24.67
2022-12-25T06:21:19.729Z,19.95
2022-12-25T06:23:47.119Z,20.15
2022-12-25T06:26:18.341Z,21.65
2022-12-25T06:28:46.293Z,27.63
2022-12-25T06:31:18.554Z,28.90
2022-12-25T06:33:46.471Z,20.75
2022-12-25T06:36:22.760Z,22.15
2022-12-25T06:38:50.384Z,24.42
2022-12-25T06:41:22.862Z,27.73
2022-12-25T06:43:55.202Z,28.88
2022-12-25T06:46:24.331Z,32.15
2022-12-25T06:48:51.680Z,33.67
2022-12-25T06:51:37.321Z,26.80
2022-12-25T06:54:04.937Z,28.27
2022-12-25T06:56:33.629Z,24.70
2022-12-25T06:59:06.989Z,24.70
2022-12-25T07:01:39.993Z,22.25
2022-12-25T07:04:13.501Z,25.65
2022-12-25T07:06:40.698Z,23.45
2022-12-25T07:09:07.966Z,23.73
2022-12-25T07:11:35.077Z,25.33
2022-12-25T07:14:02.238Z,22.90
2022-12-25T07:16:29.336Z,24.85
2022-12-25T07:18:56.575Z,29.70
2022-12-25T07:21:23.727Z,23.70
2022-12-25T07:23:50.933Z,22.92
2022-12-25T07:26:18.237Z,23.67
2022-12-25T07:28:45.649Z,29.73
2022-12-25T07:31:15.164Z,34.75
2022-12-25T07:33:42.647Z,36.15
2022-12-25T07:36:13.530Z,37.90
2022-12-25T07:38:42.608Z,33.88
2022-12-25T07:41:13.069Z,33.47
2022-12-25T07:43:40.987Z,43.15
2022-12-25T07:46:08.844Z,82.88
2022-12-25T07:48:37.043Z,121.32
2022-12-25T07:51:07.106Z,82.05
2022-12-25T07:53:35.701Z,60.65
2022-12-25T07:56:08.932Z,58.90
2022-12-25T07:58:36.139Z,58.88
2022-12-25T08:01:10.117Z,56.42
2022-12-25T08:03:37.611Z,52.45
2022-12-25T08:06:09.644Z,45.30
2022-12-25T08:08:38.646Z,70.15
2022-12-25T08:11:08.098Z,50.40
2022-12-25T08:13:35.720Z,41.67
2022-12-25T08:16:05.398Z,38.28
2022-12-25T08:18:32.951Z,32.22
2022-12-25T08:21:05.721Z,39.00
2022-12-25T08:23:35.489Z,27.47
2022-12-25T08:26:05.315Z,29.25
2022-12-25T08:28:34.365Z,26.65
2022-12-25T08:31:07.867Z,30.48
2022-12-25T08:33:35.791Z,28.02
2022-12-25T08:36:05.514Z,29.98
2022-12-25T08:38:32.805Z,26.52
2022-12-25T08:41:00.104Z,33.30
2022-12-25T08:43:27.295Z,35.83
2022-12-25T08:45:54.518Z,28.52
2022-12-25T08:48:22.029Z,24.55
2022-12-25T08:50:51.068Z,30.17
2022-12-25T08:53:18.787Z,37.17
2022-12-25T08:55:46.095Z,30.50
2022-12-25T08:58:14.779Z,27.13
2022-12-25T09:00:42.369Z,26.90
2022-12-25T09:03:09.755Z,23.67
2022-12-25T09:05:37.865Z,19.85
2022-12-25T09:08:05.234Z,20.63
2022-12-25T09:10:35.770Z,25.65
2022-12-25T09:13:02.986Z,18.45
2022-12-25T09:15:30.488Z,20.80
2022-12-25T09:17:57.846Z,18.70
2022-12-25T09:20:25.150Z,15.65
2022-12-25T09:22:52.309Z,16.63
2022-12-25T09:25:19.536Z,18.15
2022-12-25T09:27:46.695Z,20.80
2022-12-25T09:30:14.183Z,24.92
2022-12-25T09:32:41.462Z,19.35
2022-12-25T09:35:09.088Z,19.77
2022-12-25T09:37:36.382Z,15.48
2022-12-25T09:40:04.282Z,17.33
2022-12-25T09:42:34.718Z,26.92
2022-12-25T09:45:12.963Z,17.13
2022-12-25T09:47:44.392Z,20.00
2022-12-25T09:50:14.423Z,21.02
2022-12-25T09:52:51.141Z,16.75
2022-12-25T09:55:22.758Z,17.92
2022-12-25T09:58:01.953Z,16.77
2022-12-25T10:00:39.724Z,16.75
2022-12-25T10:03:43.839Z,15.65
2022-12-25T10:06:27.683Z,16.20
2022-12-25T10:09:28.888Z,16.63
2022-12-25T10:12:24.048Z,27.48
2022-12-25T10:15:26.317Z,32.35
2022-12-25T10:18:05.601Z,88.80
2022-12-25T10:20:47.130Z,277.02
2022-12-25T10:23:22.944Z,218.90
2022-12-25T10:25:51.889Z,131.27
2022-12-25T10:28:41.821Z,31.85
2022-12-25T10:31:19.169Z,19.80
2022-12-25T10:33:47.147Z,15.07
2022-12-25T10:36:18.849Z,26.23
2022-12-25T10:38:47.420Z,34.78
2022-12-25T10:41:22.463Z,22.98
2022-12-25T10:43:55.708Z,29.27
2022-12-25T10:46:26.616Z,43.90
2022-12-25T10:49:03.241Z,28.30
2022-12-25T10:51:33.700Z,36.15
2022-12-25T10:54:03.364Z,21.95
2022-12-25T10:56:30.610Z,20.17
2022-12-25T10:59:07.970Z,19.95
2022-12-25T11:01:35.281Z,31.63
2022-12-25T11:04:02.942Z,28.45
2022-12-25T11:06:32.646Z,24.58
2022-12-25T11:09:03.302Z,26.92
2022-12-25T11:11:30.904Z,30.42
2022-12-25T11:14:01.840Z,30.25
2022-12-25T11:16:40.325Z,25.23
2022-12-25T11:19:31.986Z,28.50
2022-12-25T11:22:05.340Z,25.98
2022-12-25T11:24:33.825Z,32.92
2022-12-25T11:27:04.741Z,30.63
2022-12-25T11:29:46.788Z,28.33
2022-12-25T11:32:43.707Z,52.85
2022-12-25T11:35:14.962Z,49.05
2022-12-25T11:37:43.825Z,33.13
2022-12-25T11:40:22.082Z,32.10
2022-12-25T11:42:56.070Z,48.08
2022-12-25T11:45:35.096Z,134.38
2022-12-25T11:48:16.389Z,77.20
2022-12-25T11:50:49.567Z,47.50
2022-12-25T11:53:43.250Z,34.03
2022-12-25T11:56:22.254Z,37.00
2022-12-25T11:59:03.204Z,35.92
2022-12-25T12:01:49.496Z,26.65
2022-12-25T12:04:29.621Z,19.85
2022-12-25T12:07:17.226Z,15.43
2022-12-25T12:10:18.927Z,28.38
2022-12-25T12:13:05.145Z,29.60
2022-12-25T12:15:46.785Z,26.50
2022-12-25T12:18:28.821Z,34.42
2022-12-25T12:21:31.170Z,33.58
2022-12-25T12:24:06.150Z,27.48
2022-12-25T12:26:38.257Z,20.63
2022-12-25T12:29:08.860Z,22.13
2022-12-25T12:31:40.706Z,16.48
2022-12-25T12:34:17.217Z,25.88
2022-12-25T12:36:44.526Z,28.92
2022-12-25T12:39:30.049Z,28.73
2022-12-25T12:41:57.374Z,25.67
2022-12-25T12:44:27.451Z,60.92
2022-12-25T12:46:57.090Z,28.88
2022-12-25T12:49:24.306Z,24.05
2022-12-25T12:52:03.741Z,31.13
2022-12-25T12:54:31.000Z,27.42
2022-12-25T12:57:22.226Z,33.28
2022-12-25T12:59:49.547Z,41.00
2022-12-25T13:02:54.250Z,66.93
2022-12-25T13:05:34.010Z,102.53
2022-12-25T13:08:31.362Z,58.03
2022-12-25T13:11:18.898Z,42.55
2022-12-25T13:13:48.916Z,38.20
2022-12-25T13:16:44.137Z,71.20
2022-12-25T13:19:22.542Z,183.50
2022-12-25T13:22:08.025Z,180.30
2022-12-25T13:24:37.431Z,162.02
2022-12-25T13:27:23.918Z,153.65
2022-12-25T13:29:51.690Z,192.85
2022-12-25T13:32:30.852Z,182.25
2022-12-25T13:34:59.945Z,101.90
2022-12-25T13:37:30.962Z,103.30
2022-12-25T13:39:59.545Z,107.75
2022-12-25T13:42:36.637Z,66.63
2022-12-25T13:45:25.193Z,40.95
2022-12-25T13:47:55.535Z,55.17
2022-12-25T13:50:34.238Z,54.40
2022-12-25T13:53:14.263Z,60.90
2022-12-25T13:55:44.201Z,57.50
2022-12-25T13:58:21.833Z,74.88
2022-12-25T14:00:55.857Z,48.88
2022-12-25T14:03:35.694Z,46.95
2022-12-25T14:06:07.135Z,88.13
2022-12-25T14:08:35.948Z,55.70
2022-12-25T14:11:06.095Z,58.28
2022-12-25T14:13:37.977Z,46.33
2022-12-25T14:16:05.962Z,31.02
2022-12-25T14:18:33.636Z,48.85
2022-12-25T14:21:05.867Z,40.75
2022-12-25T14:23:46.090Z,44.00
2022-12-25T14:26:31.610Z,50.45
2022-12-25T14:29:17.200Z,45.65
2022-12-25T14:31:47.340Z,41.35
2022-12-25T14:34:26.340Z,61.08
2022-12-25T14:36:54.063Z,81.22
2022-12-25T14:39:27.195Z,62.80
2022-12-25T14:41:55.053Z,54.28
2022-12-25T14:44:39.633Z,47.90
2022-12-25T14:47:20.927Z,50.95
2022-12-25T14:49:48.621Z,28.40
2022-12-25T14:52:34.831Z,51.95
2022-12-25T14:55:06.280Z,42.00
2022-12-25T14:57:38.193Z,57.63
2022-12-25T15:00:09.265Z,34.28
2022-12-25T15:02:44.097Z,39.55
2022-12-25T15:05:36.903Z,39.05
2022-12-25T15:08:11.335Z,49.97
2022-12-25T15:10:59.809Z,36.05
2022-12-25T15:13:27.909Z,39.25
2022-12-25T15:16:00.056Z,29.70
2022-12-25T15:18:32.289Z,53.47
2022-12-25T15:20:59.649Z,74.90
2022-12-25T15:23:26.931Z,26.02
2022-12-25T15:25:54.333Z,45.15
2022-12-25T15:28:21.587Z,35.60
2022-12-25T15:30:50.168Z,39.42
2022-12-25T15:33:19.207Z,37.58
2022-12-25T15:35:46.711Z,68.22
2022-12-25T15:38:14.277Z,47.08
2022-12-25T15:40:42.718Z,33.05
2022-12-25T15:43:39.384Z,47.47
2022-12-25T15:46:02.155Z,35.80
2022-12-25T15:48:29.471Z,45.13
2022-12-25T15:50:56.621Z,22.75
2022-12-25T15:53:24.716Z,28.17
2022-12-25T15:55:52.748Z,21.95
2022-12-25T15:58:19.967Z,26.83
2022-12-25T16:00:47.231Z,82.80
2022-12-25T16:03:14.531Z,22.15
2022-12-25T16:05:41.911Z,20.65
2022-12-25T16:08:09.816Z,28.00
2022-12-25T16:10:39.081Z,27.98
2022-12-25T16:13:06.448Z,17.42
2022-12-25T16:15:33.689Z,16.50
2022-12-25T16:18:00.884Z,19.90
2022-12-25T16:20:28.203Z,23.48
2022-12-25T16:22:55.447Z,26.83
2022-12-25T16:25:22.761Z,36.70
2022-12-25T16:27:50.209Z,19.48
2022-12-25T16:30:18.627Z,68.00
2022-12-25T16:32:49.622Z,23.77
2022-12-25T16:35:18.037Z,21.05
2022-12-25T16:37:45.465Z,30.42
2022-12-25T16:40:12.674Z,43.10
2022-12-25T16:42:39.892Z,42.95
2022-12-25T16:45:07.666Z,34.08
2022-12-25T16:47:35.111Z,15.20
2022-12-25T16:50:04.011Z,33.28
2022-12-25T16:52:33.010Z,29.08
2022-12-25T16:55:00.992Z,24.90
2022-12-25T16:57:28.953Z,18.42
2022-12-25T16:59:56.311Z,42.80
2022-12-25T17:02:23.742Z,19.17
2022-12-25T17:04:51.227Z,25.10
2022-12-25T17:07:19.804Z,29.45
2022-12-25T17:09:50.483Z,19.33
2022-12-25T17:12:17.836Z,17.83
2022-12-25T17:14:45.140Z,23.42
2022-12-25T17:17:12.311Z,23.92
2022-12-25T17:19:39.495Z,14.25
2022-12-25T17:22:07.647Z,15.02
2022-12-25T17:24:37.544Z,35.80
2022-12-25T17:27:08.843Z,24.55
2022-12-25T17:29:40.174Z,28.77
2022-12-25T17:32:08.558Z,43.67
2022-12-25T17:34:36.007Z,54.60
2022-12-25T17:37:03.294Z,18.67
2022-12-25T17:39:30.934Z,37.22
2022-12-25T17:41:58.567Z,31.52
2022-12-25T17:44:26.208Z,27.85
2022-12-25T17:46:53.631Z,35.17
2022-12-25T17:49:22.502Z,33.67
2022-12-25T17:51:49.980Z,30.58
2022-12-25T17:54:17.148Z,16.25
2022-12-25T17:56:44.572Z,24.17
2022-12-25T17:59:18.550Z,20.50
2022-12-25T18:01:47.339Z,20.67
2022-12-25T18:04:14.790Z,18.25
2022-12-25T18:06:42.122Z,14.77
2022-12-25T18:09:11.406Z,12.00
2022-12-25T18:11:42.903Z,12.05
2022-12-25T18:14:13.583Z,6.45
2022-12-25T18:16:43.462Z,13.40
2022-12-25T18:19:12.610Z,13.55
2022-12-25T18:21:40.206Z,18.50
2022-12-25T18:24:08.299Z,18.35
2022-12-25T18:26:36.452Z,16.85
2022-12-25T18:29:04.300Z,12.27
2022-12-25T18:31:32.858Z,19.63
2022-12-25T18:34:01.580Z,11.00
2022-12-25T18:36:29.665Z,10.80
2022-12-25T18:38:57.988Z,12.38
2022-12-25T18:41:26.602Z,7.28
2022-12-25T18:43:55.784Z,12.77
2022-12-25T18:46:27.925Z,12.30
2022-12-25T18:48:56.658Z,12.30
2022-12-25T18:51:24.153Z,20.50
2022-12-25T18:53:51.779Z,25.90
2022-12-25T18:56:19.365Z,11.00
2022-12-25T18:58:47.772Z,16.45
2022-12-25T19:01:23.716Z,22.38
2022-12-25T19:03:53.868Z,20.33
2022-12-25T19:06:28.555Z,18.30
2022-12-25T19:08:56.653Z,60.90
2022-12-25T19:11:24.211Z,19.73
2022-12-25T19:13:51.504Z,23.38
2022-12-25T19:16:18.839Z,19.58
2022-12-25T19:18:46.612Z,28.20
2022-12-25T19:21:14.031Z,20.27
2022-12-25T19:23:41.327Z,37.85
2022-12-25T19:26:10.208Z,14.50
2022-12-25T19:28:38.947Z,23.17
2022-12-25T19:31:08.206Z,17.00
2022-12-25T19:33:36.960Z,22.17
2022-12-25T19:36:12.738Z,27.27
2022-12-25T19:38:40.080Z,31.50
2022-12-25T19:41:13.116Z,17.48
2022-12-25T19:43:41.870Z,27.08
2022-12-25T19:46:15.473Z,17.10
2022-12-25T19:48:42.682Z,14.65
2022-12-25T19:51:18.642Z,19.70
2022-12-25T19:53:47.030Z,24.40
2022-12-25T19:56:15.196Z,13.52
2022-12-25T19:58:42.448Z,21.05
2022-12-25T20:01:13.157Z,20.35
2022-12-25T20:03:46.107Z,25.25
2022-12-25T20:06:22.241Z,18.75
2022-12-25T20:08:52.626Z,11.85
2022-12-25T20:11:21.342Z,28.95
2022-12-25T20:13:48.621Z,26.95
2022-12-25T20:16:15.811Z,20.52
2022-12-25T20:18:43.161Z,34.90
2022-12-25T20:21:18.863Z,13.00
2022-12-25T20:23:48.139Z,29.13
2022-12-25T20:26:17.538Z,18.55
2022-12-25T20:28:45.464Z,18.08
2022-12-25T20:31:16.200Z,15.43
2022-12-25T20:33:43.786Z,19.38
2022-12-25T20:36:11.825Z,16.88
2022-12-25T20:38:39.864Z,20.00
2022-12-25T20:41:27.792Z,10.52
2022-12-25T20:43:56.363Z,17.05
2022-12-25T20:46:24.225Z,11.80
2022-12-25T20:48:53.201Z,10.50
2022-12-25T20:51:25.972Z,23.80
2022-12-25T20:53:53.694Z,14.00
2022-12-25T20:56:23.334Z,12.43
2022-12-25T20:58:58.260Z,12.75
2022-12-25T21:01:25.840Z,9.70
2022-12-25T21:03:53.429Z,10.40
2022-12-25T21:06:21.897Z,10.98
2022-12-25T21:08:49.390Z,19.58
2022-12-25T21:11:18.214Z,8.65
2022-12-25T21:13:46.443Z,14.13
2022-12-25T21:16:16.823Z,12.13
2022-12-25T21:18:44.407Z,8.40
2022-12-25T21:21:11.970Z,9.60
2022-12-25T21:23:40.436Z,17.13
2022-12-25T21:26:11.171Z,9.57
2022-12-25T21:28:38.536Z,22.48
2022-12-25T21:31:06.996Z,10.60
2022-12-25T21:33:53.148Z,11.70
2022-12-25T21:36:26.891Z,8.00
2022-12-25T21:39:07.848Z,12.73
2022-12-25T21:41:37.660Z,11.57
2022-12-25T21:44:06.309Z,12.77
2022-12-25T21:46:33.797Z,11.38
2022-12-25T21:49:02.304Z,9.32
2022-12-25T21:51:50.552Z,6.75
2022-12-25T21:54:19.501Z,7.95
2022-12-25T21:56:47.726Z,12.38
2022-12-25T21:59:18.395Z,11.75
2022-12-25T22:01:46.774Z,11.32
2022-12-25T22:04:15.886Z,11.90
2022-12-25T22:07:02.376Z,11.90
2022-12-25T22:09:29.698Z,6.60
2022-12-25T22:12:15.719Z,5.97
2022-12-25T22:14:55.243Z,7.68
2022-12-25T22:17:47.704Z,9.80
2022-12-25T22:20:24.361Z,8.23
2022-12-25T22:22:52.033Z,8.00
2022-12-25T22:25:19.685Z,15.27
2022-12-25T22:27:48.110Z,8.13
2022-12-25T22:30:21.370Z,7.47
2022-12-25T22:32:48.623Z,7.70
2022-12-25T22:35:16.879Z,13.30
2022-12-25T22:37:44.864Z,11.40
2022-12-25T22:40:15.747Z,9.38
2022-12-25T22:42:43.345Z,9.85
2022-12-25T22:45:11.269Z,8.90
2022-12-25T22:47:38.579Z,11.02
2022-12-25T22:50:06.561Z,8.48
2022-12-25T22:52:33.914Z,5.72
2022-12-25T22:55:02.571Z,7.15
2022-12-25T22:57:29.791Z,9.02
2022-12-25T22:59:57.096Z,7.60
2022-12-25T23:02:24.498Z,7.78
2022-12-25T23:04:51.808Z,7.10
2022-12-25T23:07:20.602Z,8.23
2022-12-25T23:09:47.851Z,7.20
2022-12-25T23:12:33.448Z,8.90
2022-12-25T23:15:00.618Z,6.50
2022-12-25T23:17:46.161Z,6.50
2022-12-25T23:20:33.903Z,7.97
2022-12-25T23:23:20.066Z,10.95
2022-12-25T23:26:05.893Z,6.68
2022-12-25T23:28:51.792Z,7.90
2022-12-25T23:31:20.721Z,7.30
2022-12-25T23:33:47.996Z,8.23
2022-12-25T23:36:15.257Z,8.93
2022-12-25T23:38:42.430Z,9.75
2022-12-25T23:41:09.679Z,9.27
2022-12-25T23:43:36.827Z,6.85
2022-12-25T23:46:04.041Z,11.63
2022-12-25T23:48:31.308Z,11.63
2022-12-25T23:51:03.966Z,10.55
2022-12-25T23:53:31.889Z,6.95
2022-12-25T23:55:59.562Z,17.42
2022-12-25T23:58:28.683Z,8.13
